createdAt,value
2022-12-20T00:01:21.337Z,-0.10
2022-12-20T00:03:53.780Z,-0.10
2022-12-20T00:06:21.593Z,-0.10
2022-12-20T00:08:54.594Z,-0.10
2022-12-20T00:11:25.479Z,-0.10
2022-12-20T00:13:52.222Z,-0.10
2022-12-20T00:16:22.189Z,-0.10
2022-12-20T00:18:52.672Z,-0.10
2022-12-20T00:21:19.331Z,-0.10
2022-12-20T00:23:46.068Z,-0.10
2022-12-20T00:26:15.545Z,0.00
2022-12-20T00:28:45.277Z,0.00
2022-12-20T00:31:15.042Z,0.00
2022-12-20T00:33:44.723Z,0.00
2022-12-20T00:36:13.732Z,-0.10
2022-12-20T00:38:40.847Z,0.00
2022-12-20T00:41:15.933Z,0.00
2022-12-20T00:43:42.571Z,0.00
2022-12-20T00:46:11.320Z,0.10
2022-12-20T00:48:38.685Z,0.10
2022-12-20T00:51:11.589Z,0.10
2022-12-20T00:53:39.057Z,0.00
2022-12-20T00:56:06.646Z,0.00
2022-12-20T00:58:34.755Z,0.00
2022-12-20T01:01:02.043Z,0.00
2022-12-20T01:03:28.897Z,0.00
2022-12-20T01:05:58.611Z,0.00
2022-12-20T01:08:27.242Z,0.00
2022-12-20T01:11:02.212Z,0.00
2022-12-20T01:13:29.993Z,0.00
2022-12-20T01:15:59.358Z,0.00
2022-12-20T01:18:26.021Z,0.00
2022-12-20T01:21:01.554Z,0.00
2022-12-20T01:23:28.370Z,0.00
2022-12-20T01:25:57.185Z,0.00
2022-12-20T01:28:23.846Z,0.00
2022-12-20T01:30:50.542Z,0.00
2022-12-20T01:33:17.207Z,0.00
2022-12-20T01:35:54.264Z,0.10
2022-12-20T01:38:20.926Z,0.10
2022-12-20T01:40:47.624Z,0.10
2022-12-20T01:43:17.120Z,0.00
2022-12-20T01:45:43.923Z,0.00
2022-12-20T01:48:12.009Z,-0.10
2022-12-20T01:50:40.798Z,-0.10
2022-12-20T01:53:07.512Z,-0.10
2022-12-20T01:55:35.625Z,-0.10
2022-12-20T01:58:12.115Z,-0.10
2022-12-20T02:00:39.117Z,0.00
2022-12-20T02:03:09.463Z,0.00
2022-12-20T02:05:41.893Z,0.00
2022-12-20T02:08:11.026Z,0.00
2022-12-20T02:11:02.724Z,0.00
2022-12-20T02:13:38.528Z,0.00
2022-12-20T02:16:05.566Z,0.00
2022-12-20T02:18:41.843Z,0.00
2022-12-20T02:21:18.357Z,0.00
2022-12-20T02:23:57.051Z,-0.10
2022-12-20T02:26:52.263Z,-0.10
2022-12-20T02:29:24.957Z,-0.20
2022-12-20T02:32:17.132Z,-0.20
2022-12-20T02:34:47.184Z,-0.20
2022-12-20T02:37:13.851Z,-0.10
2022-12-20T02:39:42.220Z,0.00
2022-12-20T02:42:20.846Z,0.00
2022-12-20T02:45:14.786Z,0.00
2022-12-20T02:48:20.177Z,0.10
2022-12-20T02:50:52.935Z,0.10
2022-12-20T02:53:22.517Z,0.00
2022-12-20T02:56:07.660Z,0.00
2022-12-20T02:58:58.933Z,0.00
2022-12-20T03:01:32.353Z,0.00
2022-12-20T03:04:02.959Z,0.00
2022-12-20T03:06:30.993Z,0.00
2022-12-20T03:08:57.735Z,0.00
2022-12-20T03:11:24.445Z,0.10
2022-12-20T03:13:51.187Z,0.10
2022-12-20T03:16:17.905Z,0.20
2022-12-20T03:18:46.273Z,0.20
2022-12-20T03:21:12.958Z,0.20
2022-12-20T03:23:42.014Z,0.30
2022-12-20T03:26:08.627Z,0.30
2022-12-20T03:28:35.487Z,0.40
2022-12-20T03:31:02.461Z,0.40
2022-12-20T03:33:29.168Z,0.40
2022-12-20T03:35:55.861Z,0.40
2022-12-20T03:38:22.500Z,0.40
2022-12-20T03:40:49.199Z,0.40
2022-12-20T03:43:15.997Z,0.40
2022-12-20T03:45:42.629Z,0.40
2022-12-20T03:48:09.269Z,0.40
2022-12-20T03:50:39.527Z,0.40
2022-12-20T03:55:46.964Z,0.40
2022-12-20T03:58:13.610Z,0.40
2022-12-20T04:00:40.333Z,0.40
2022-12-20T04:03:07.112Z,0.30
2022-12-20T04:05:33.887Z,0.40
2022-12-20T04:08:00.658Z,0.30
2022-12-20T04:10:27.363Z,0.30
2022-12-20T04:12:56.800Z,0.30
2022-12-20T04:15:23.572Z,0.20
2022-12-20T04:17:50.258Z,0.20
2022-12-20T04:20:20.589Z,0.20
2022-12-20T04:22:48.819Z,0.20
2022-12-20T04:25:17.567Z,0.20
2022-12-20T04:27:44.305Z,0.20
2022-12-20T04:30:11.511Z,0.20
2022-12-20T04:32:38.715Z,0.10
2022-12-20T04:35:05.749Z,0.10
2022-12-20T04:37:32.631Z,0.10
2022-12-20T04:39:59.648Z,0.10
2022-12-20T04:42:27.189Z,0.00
2022-12-20T04:44:56.254Z,0.00
2022-12-20T04:47:25.673Z,0.00
2022-12-20T04:49:52.327Z,0.00
2022-12-20T04:52:40.936Z,0.10
2022-12-20T04:55:12.284Z,0.10
2022-12-20T04:57:38.899Z,0.10
2022-12-20T05:00:09.003Z,0.20
2022-12-20T05:02:35.789Z,0.30
2022-12-20T05:05:03.280Z,0.30
2022-12-20T05:07:29.949Z,0.30
2022-12-20T05:09:56.562Z,0.40
2022-12-20T05:12:23.230Z,0.40
2022-12-20T05:14:50.051Z,0.40
2022-12-20T05:17:16.928Z,0.40
2022-12-20T05:19:43.596Z,0.40
2022-12-20T05:22:30.269Z,0.40
2022-12-20T05:25:15.751Z,0.40
2022-12-20T05:27:42.551Z,0.50
2022-12-20T05:30:09.779Z,0.60
2022-12-20T05:32:36.592Z,0.70
2022-12-20T05:35:03.792Z,0.60
2022-12-20T05:37:30.835Z,0.60
2022-12-20T05:39:57.483Z,0.60
2022-12-20T05:42:24.293Z,0.60
2022-12-20T05:44:51.500Z,0.60
2022-12-20T05:47:18.132Z,0.50
2022-12-20T05:49:44.763Z,0.50
2022-12-20T05:52:11.514Z,0.50
2022-12-20T05:54:38.131Z,0.50
2022-12-20T05:57:05.132Z,0.50
2022-12-20T05:59:31.806Z,0.50
2022-12-20T06:01:58.546Z,0.50
2022-12-20T06:04:25.483Z,0.50
2022-12-20T06:06:54.549Z,0.50
2022-12-20T06:09:21.309Z,0.50
2022-12-20T06:11:48.012Z,0.50
2022-12-20T06:14:14.645Z,0.50
2022-12-20T06:16:41.449Z,0.50
2022-12-20T06:19:09.056Z,0.50
2022-12-20T06:21:35.814Z,0.50
2022-12-20T06:24:02.636Z,0.50
2022-12-20T06:26:35.986Z,0.50
2022-12-20T06:29:07.066Z,0.50
2022-12-20T06:31:34.118Z,0.40
2022-12-20T06:34:00.811Z,0.50
2022-12-20T06:36:28.761Z,0.50
2022-12-20T06:38:55.425Z,0.50
2022-12-20T06:41:22.126Z,0.60
2022-12-20T06:43:48.938Z,0.60
2022-12-20T06:46:15.681Z,0.70
2022-12-20T06:48:42.382Z,0.60
2022-12-20T06:51:12.046Z,0.60
2022-12-20T06:53:38.773Z,0.70
2022-12-20T06:56:05.714Z,0.80
2022-12-20T06:58:32.354Z,0.80
2022-12-20T07:00:59.608Z,0.90
2022-12-20T07:03:29.328Z,0.90
2022-12-20T07:05:56.654Z,1.00
2022-12-20T07:08:24.360Z,1.00
2022-12-20T07:10:52.927Z,1.00
2022-12-20T07:13:20.137Z,1.00
2022-12-20T07:15:46.848Z,1.00
2022-12-20T07:18:13.532Z,1.00
2022-12-20T07:20:40.638Z,1.00
2022-12-20T07:23:07.382Z,1.00
2022-12-20T07:25:34.098Z,1.00
2022-12-20T07:28:00.785Z,1.00
2022-12-20T07:30:27.566Z,1.00
2022-12-20T07:32:54.651Z,1.00
2022-12-20T07:35:21.307Z,0.90
2022-12-20T07:37:48.051Z,0.90
2022-12-20T07:40:16.332Z,0.90
2022-12-20T07:42:48.310Z,0.90
2022-12-20T07:45:15.885Z,0.90
2022-12-20T07:47:43.719Z,0.90
2022-12-20T07:50:11.742Z,1.00
2022-12-20T07:52:41.389Z,1.00
2022-12-20T07:55:09.222Z,1.00
2022-12-20T07:57:49.117Z,1.00
2022-12-20T08:00:18.778Z,1.00
2022-12-20T08:03:12.435Z,1.00
2022-12-20T08:05:44.041Z,1.00
2022-12-20T08:08:12.913Z,1.10
2022-12-20T08:10:39.989Z,1.10
2022-12-20T08:13:07.711Z,1.20
2022-12-20T08:15:35.867Z,1.20
2022-12-20T08:18:02.934Z,1.30
2022-12-20T08:20:29.985Z,1.40
2022-12-20T08:23:05.524Z,1.50
2022-12-20T08:25:40.955Z,1.60
2022-12-20T08:28:08.604Z,1.80
2022-12-20T08:30:35.385Z,1.90
2022-12-20T08:33:04.520Z,2.10
2022-12-20T08:35:31.599Z,2.10
2022-12-20T08:38:01.178Z,2.00
2022-12-20T08:40:27.808Z,2.00
2022-12-20T08:42:54.647Z,2.00
2022-12-20T08:45:21.381Z,1.90
2022-12-20T08:47:48.074Z,1.80
2022-12-20T08:50:15.901Z,1.80
2022-12-20T08:52:44.917Z,1.90
2022-12-20T08:55:13.142Z,1.90
2022-12-20T08:57:39.998Z,1.90
2022-12-20T09:00:07.285Z,2.00
2022-12-20T09:02:35.138Z,2.00
2022-12-20T09:05:01.916Z,2.10
2022-12-20T09:07:29.221Z,2.20
2022-12-20T09:09:55.920Z,2.20
2022-12-20T09:12:22.785Z,2.20
2022-12-20T09:14:49.538Z,2.30
2022-12-20T09:17:18.315Z,2.40
2022-12-20T09:19:44.940Z,2.50
2022-12-20T09:22:11.630Z,2.60
2022-12-20T09:24:38.432Z,2.60
2022-12-20T09:27:05.119Z,2.60
2022-12-20T09:29:35.997Z,2.70
2022-12-20T09:32:03.214Z,2.70
2022-12-20T09:34:29.840Z,2.80
2022-12-20T09:36:56.845Z,2.80
2022-12-20T09:39:23.539Z,2.90
2022-12-20T09:41:50.255Z,3.00
2022-12-20T09:44:32.035Z,3.00
2022-12-20T09:47:10.085Z,3.00
2022-12-20T09:49:41.919Z,3.00
2022-12-20T09:52:25.688Z,3.00
2022-12-20T09:55:47.777Z,3.10
2022-12-20T09:58:35.810Z,3.20
2022-12-20T10:01:16.603Z,3.30
2022-12-20T10:03:44.919Z,3.30
2022-12-20T10:06:37.850Z,3.30
2022-12-20T10:09:11.384Z,3.40
2022-12-20T10:11:51.128Z,3.40
2022-12-20T10:14:25.565Z,3.40
2022-12-20T10:17:35.414Z,3.40
2022-12-20T10:20:28.565Z,3.50
2022-12-20T10:23:33.530Z,3.60
2022-12-20T10:26:01.030Z,3.70
2022-12-20T10:28:34.651Z,3.70
2022-12-20T10:31:07.574Z,3.70
2022-12-20T10:33:34.772Z,3.70
2022-12-20T10:36:22.452Z,3.70
2022-12-20T10:38:51.638Z,3.70
2022-12-20T10:41:22.682Z,3.80
2022-12-20T10:44:18.810Z,3.80
2022-12-20T10:47:11.899Z,3.80
2022-12-20T10:49:42.935Z,3.90
2022-12-20T10:52:09.684Z,3.90
2022-12-20T10:54:47.155Z,4.00
2022-12-20T10:57:24.460Z,4.20
2022-12-20T10:59:58.711Z,4.40
2022-12-20T11:02:40.161Z,4.50
2022-12-20T11:05:14.684Z,4.60
2022-12-20T11:10:47.818Z,4.70
2022-12-20T11:13:26.473Z,4.80
2022-12-20T11:15:57.198Z,4.90
2022-12-20T11:18:36.551Z,5.10
2022-12-20T11:21:09.751Z,5.20
2022-12-20T11:23:44.634Z,5.30
2022-12-20T11:26:36.772Z,5.40
2022-12-20T11:29:15.386Z,5.60
2022-12-20T11:32:01.303Z,5.80
2022-12-20T11:34:43.823Z,5.90
2022-12-20T11:37:26.331Z,6.10
2022-12-20T11:40:17.186Z,6.20
2022-12-20T11:43:20.806Z,6.20
2022-12-20T11:46:27.721Z,6.00
2022-12-20T11:49:13.590Z,5.90
2022-12-20T11:51:57.098Z,5.80
2022-12-20T11:54:29.980Z,5.50
2022-12-20T11:57:07.133Z,5.30
2022-12-20T11:59:50.371Z,5.20
2022-12-20T12:02:32.642Z,5.20
2022-12-20T12:05:27.046Z,5.30
2022-12-20T12:08:04.009Z,5.40
2022-12-20T12:10:35.943Z,5.50
2022-12-20T12:13:18.767Z,5.60
2022-12-20T12:15:57.689Z,5.70
2022-12-20T12:18:28.577Z,5.60
2022-12-20T12:21:09.895Z,5.50
2022-12-20T12:23:58.138Z,5.40
2022-12-20T12:26:45.354Z,5.40
2022-12-20T12:29:13.838Z,5.40
2022-12-20T12:31:58.461Z,5.30
2022-12-20T12:34:42.946Z,5.20
2022-12-20T12:37:35.951Z,5.10
2022-12-20T12:40:23.946Z,5.00
2022-12-20T12:42:56.986Z,4.90
2022-12-20T12:45:29.039Z,4.80
2022-12-20T12:48:01.627Z,4.80
2022-12-20T12:50:32.996Z,4.80
2022-12-20T12:53:08.751Z,4.90
2022-12-20T12:56:12.809Z,5.10
2022-12-20T12:58:48.408Z,5.20
2022-12-20T13:01:47.833Z,5.30
2022-12-20T13:04:20.093Z,5.50
2022-12-20T13:06:58.794Z,5.50
2022-12-20T13:09:25.445Z,5.50
2022-12-20T13:12:03.357Z,5.40
2022-12-20T13:14:32.251Z,5.50
2022-12-20T13:17:13.725Z,5.60
2022-12-20T13:19:53.842Z,5.70
2022-12-20T13:22:25.110Z,5.70
2022-12-20T13:25:00.104Z,5.80
2022-12-20T13:27:31.389Z,5.80
2022-12-20T13:30:19.001Z,5.80
2022-12-20T13:32:48.817Z,6.00
2022-12-20T13:35:24.753Z,6.00
2022-12-20T13:37:56.424Z,6.00
2022-12-20T13:40:43.486Z,6.10
2022-12-20T13:43:20.806Z,6.00
2022-12-20T13:45:57.457Z,5.90
2022-12-20T13:48:33.543Z,5.80
2022-12-20T13:51:00.748Z,5.80
2022-12-20T13:53:27.898Z,5.80
2022-12-20T13:55:55.858Z,5.80
2022-12-20T13:58:30.156Z,5.80
2022-12-20T14:01:11.621Z,6.00
2022-12-20T14:03:46.035Z,6.00
2022-12-20T14:06:14.847Z,6.10
2022-12-20T14:08:46.042Z,6.10
2022-12-20T14:11:15.319Z,6.10
2022-12-20T14:13:42.705Z,6.20
2022-12-20T14:16:18.112Z,6.10
2022-12-20T14:19:03.148Z,6.00
2022-12-20T14:21:31.182Z,5.70
2022-12-20T14:24:00.673Z,5.50
2022-12-20T14:26:39.537Z,5.20
2022-12-20T14:29:14.759Z,5.00
2022-12-20T14:31:44.609Z,4.90
2022-12-20T14:34:11.307Z,4.70
2022-12-20T14:36:44.235Z,4.70
2022-12-20T14:39:30.469Z,4.70
2022-12-20T14:42:09.841Z,4.70
2022-12-20T14:44:36.552Z,4.60
2022-12-20T14:47:15.510Z,4.60
2022-12-20T14:49:49.840Z,4.60
2022-12-20T14:52:24.026Z,4.50
2022-12-20T14:55:17.573Z,4.50
2022-12-20T14:57:51.716Z,4.50
2022-12-20T15:00:18.378Z,4.40
2022-12-20T15:03:00.761Z,4.40
2022-12-20T15:05:40.349Z,4.30
2022-12-20T15:08:30.815Z,4.30
2022-12-20T15:11:24.140Z,4.30
2022-12-20T15:13:54.375Z,4.20
2022-12-20T15:16:23.943Z,4.20
2022-12-20T15:18:53.388Z,4.10
2022-12-20T15:21:31.774Z,4.10
2022-12-20T15:24:02.184Z,4.10
2022-12-20T15:26:31.213Z,4.10
2022-12-20T15:28:58.140Z,4.10
2022-12-20T15:31:32.930Z,4.20
2022-12-20T15:34:04.344Z,4.10
2022-12-20T15:36:33.468Z,4.10
2022-12-20T15:39:12.484Z,4.10
2022-12-20T15:41:43.243Z,4.00
2022-12-20T15:44:37.287Z,4.00
2022-12-20T15:47:04.205Z,3.90
2022-12-20T15:49:32.462Z,4.00
2022-12-20T15:51:59.644Z,3.90
2022-12-20T15:54:30.810Z,3.90
2022-12-20T15:56:59.593Z,3.90
2022-12-20T16:02:25.931Z,3.90
2022-12-20T16:04:53.583Z,3.90
2022-12-20T16:07:20.346Z,3.80
2022-12-20T16:09:47.524Z,3.80
2022-12-20T16:12:18.435Z,3.80
2022-12-20T16:14:45.185Z,3.80
2022-12-20T16:17:16.222Z,3.80
2022-12-20T16:19:43.818Z,3.80
2022-12-20T16:22:17.335Z,4.00
2022-12-20T16:24:44.556Z,4.00
2022-12-20T16:27:11.304Z,3.90
2022-12-20T16:29:38.152Z,4.00
2022-12-20T16:32:14.367Z,3.90
2022-12-20T16:34:45.569Z,3.90
2022-12-20T16:37:12.598Z,4.00
2022-12-20T16:39:39.549Z,3.90
2022-12-20T16:42:20.089Z,3.90
2022-12-20T16:44:51.338Z,3.90
2022-12-20T16:47:18.625Z,3.90
2022-12-20T16:49:52.261Z,3.90
2022-12-20T16:52:26.123Z,3.90
2022-12-20T16:54:52.827Z,3.90
2022-12-20T16:57:21.145Z,4.00
2022-12-20T16:59:50.656Z,3.90
2022-12-20T17:02:25.629Z,3.90
2022-12-20T17:04:52.423Z,3.90
2022-12-20T17:07:19.209Z,3.90
2022-12-20T17:09:45.915Z,3.80
2022-12-20T17:12:17.721Z,3.80
2022-12-20T17:14:44.969Z,3.80
2022-12-20T17:17:11.955Z,3.90
2022-12-20T17:19:39.357Z,3.90
2022-12-20T17:22:24.676Z,3.90
2022-12-20T17:24:51.504Z,3.80
2022-12-20T17:27:21.070Z,3.90
2022-12-20T17:29:47.707Z,3.90
2022-12-20T17:32:20.914Z,3.80
2022-12-20T17:34:56.858Z,3.80
2022-12-20T17:37:24.524Z,3.80
2022-12-20T17:39:51.207Z,3.70
2022-12-20T17:42:17.877Z,3.70
2022-12-20T17:44:46.105Z,3.70
2022-12-20T17:47:13.060Z,3.70
2022-12-20T17:49:39.707Z,3.70
2022-12-20T17:52:16.130Z,3.70
2022-12-20T17:54:43.192Z,3.80
2022-12-20T17:57:15.395Z,3.80
2022-12-20T17:59:42.887Z,3.80
2022-12-20T18:02:22.192Z,3.90
2022-12-20T18:04:49.894Z,3.80
2022-12-20T18:07:18.288Z,3.70
2022-12-20T18:09:47.652Z,3.70
2022-12-20T18:12:14.428Z,3.70
2022-12-20T18:14:41.101Z,3.60
2022-12-20T18:17:07.841Z,3.50
2022-12-20T18:19:34.568Z,3.50
2022-12-20T18:22:01.397Z,3.50
2022-12-20T18:24:28.189Z,3.40
2022-12-20T18:26:54.822Z,3.40
2022-12-20T18:29:21.511Z,3.30
2022-12-20T18:31:48.215Z,3.30
2022-12-20T18:34:17.360Z,3.30
2022-12-20T18:36:43.970Z,3.20
2022-12-20T18:39:13.055Z,3.20
2022-12-20T18:41:42.711Z,3.20
2022-12-20T18:44:12.569Z,3.20
2022-12-20T18:46:39.343Z,3.20
2022-12-20T18:49:06.203Z,3.20
2022-12-20T18:51:38.548Z,3.20
2022-12-20T18:54:07.835Z,3.10
2022-12-20T18:56:37.037Z,3.10
2022-12-20T18:59:11.454Z,3.10
2022-12-20T19:01:40.602Z,3.00
2022-12-20T19:04:08.052Z,3.10
2022-12-20T19:06:36.237Z,3.00
2022-12-20T19:09:06.785Z,3.00
2022-12-20T19:11:33.833Z,3.00
2022-12-20T19:14:00.693Z,3.00
2022-12-20T19:16:30.417Z,3.00
2022-12-20T19:18:58.455Z,3.00
2022-12-20T19:21:28.594Z,3.00
2022-12-20T19:23:58.311Z,2.90
2022-12-20T19:26:27.397Z,3.00
2022-12-20T19:28:54.666Z,2.90
2022-12-20T19:31:27.510Z,2.90
2022-12-20T19:33:57.901Z,2.90
2022-12-20T19:36:27.572Z,2.80
2022-12-20T19:38:59.190Z,2.80
2022-12-20T19:41:28.403Z,2.80
2022-12-20T19:43:55.763Z,2.90
2022-12-20T19:46:29.250Z,2.90
2022-12-20T19:48:57.276Z,2.90
2022-12-20T19:51:25.708Z,2.90
2022-12-20T19:53:53.859Z,3.00
2022-12-20T19:56:25.102Z,3.00
2022-12-20T19:58:52.718Z,3.00
2022-12-20T20:01:21.660Z,2.90
2022-12-20T20:03:48.509Z,2.90
2022-12-20T20:06:15.421Z,2.90
2022-12-20T20:08:42.193Z,3.00
2022-12-20T20:11:10.814Z,3.00
2022-12-20T20:13:38.964Z,3.00
2022-12-20T20:16:06.913Z,3.00
2022-12-20T20:18:40.801Z,3.00
2022-12-20T20:21:09.914Z,3.00
2022-12-20T20:23:38.273Z,3.00
2022-12-20T20:26:11.161Z,3.00
2022-12-20T20:28:44.562Z,3.00
2022-12-20T20:31:14.710Z,3.00
2022-12-20T20:33:42.549Z,3.00
2022-12-20T20:36:13.221Z,3.00
2022-12-20T20:38:40.157Z,3.10
2022-12-20T20:41:07.202Z,3.10
2022-12-20T20:43:37.846Z,3.10
2022-12-20T20:46:06.838Z,3.10
2022-12-20T20:48:33.881Z,3.10
2022-12-20T20:51:00.817Z,3.20
2022-12-20T20:53:32.992Z,3.20
2022-12-20T20:56:01.338Z,3.10
2022-12-20T20:58:28.156Z,3.10
2022-12-20T21:01:00.036Z,3.10
2022-12-20T21:03:27.844Z,3.10
2022-12-20T21:08:41.664Z,3.10
2022-12-20T21:11:09.493Z,3.10
2022-12-20T21:13:36.905Z,3.20
2022-12-20T21:16:12.693Z,3.20
2022-12-20T21:18:39.586Z,3.20
2022-12-20T21:21:11.778Z,3.30
2022-12-20T21:23:39.760Z,3.30
2022-12-20T21:26:07.489Z,3.30
2022-12-20T21:28:34.765Z,3.30
2022-12-20T21:31:03.438Z,3.30
2022-12-20T21:33:30.323Z,3.40
2022-12-20T21:36:08.785Z,3.40
2022-12-20T21:38:35.446Z,3.40
2022-12-20T21:41:10.489Z,3.50
2022-12-20T21:43:37.482Z,3.50
2022-12-20T21:46:04.351Z,3.50
2022-12-20T21:48:31.243Z,3.50
2022-12-20T21:51:10.024Z,3.50
2022-12-20T21:53:42.417Z,3.50
2022-12-20T21:56:09.610Z,3.50
2022-12-20T21:58:36.303Z,3.50
2022-12-20T22:01:05.703Z,3.50
2022-12-20T22:03:32.492Z,3.50
2022-12-20T22:05:59.559Z,3.50
2022-12-20T22:08:30.147Z,3.50
2022-12-20T22:11:02.540Z,3.50
2022-12-20T22:13:34.352Z,3.60
2022-12-20T22:16:13.073Z,3.60
2022-12-20T22:18:40.758Z,3.60
2022-12-20T22:21:10.104Z,3.60
2022-12-20T22:23:37.584Z,3.60
2022-12-20T22:26:06.617Z,3.70
2022-12-20T22:28:33.556Z,3.70
2022-12-20T22:31:00.292Z,3.60
2022-12-20T22:33:29.021Z,3.70
2022-12-20T22:35:59.592Z,3.70
2022-12-20T22:38:26.316Z,3.70
2022-12-20T22:40:58.720Z,3.70
2022-12-20T22:43:25.951Z,3.70
2022-12-20T22:45:59.541Z,3.70
2022-12-20T22:48:26.707Z,3.80
2022-12-20T22:51:01.308Z,3.80
2022-12-20T22:53:28.138Z,3.80
2022-12-20T22:55:55.316Z,3.80
2022-12-20T22:58:22.088Z,3.80
2022-12-20T23:00:48.747Z,3.80
2022-12-20T23:03:18.408Z,3.80
2022-12-20T23:05:56.477Z,3.90
2022-12-20T23:08:24.099Z,3.90
2022-12-20T23:11:10.116Z,3.90
2022-12-20T23:13:57.611Z,3.90
2022-12-20T23:16:25.388Z,4.00
2022-12-20T23:18:56.543Z,3.90
2022-12-20T23:21:42.028Z,4.00
2022-12-20T23:24:09.315Z,4.00
2022-12-20T23:26:37.147Z,4.00
2022-12-20T23:29:06.151Z,4.00
2022-12-20T23:31:35.980Z,4.00
2022-12-20T23:34:03.379Z,4.00
2022-12-20T23:36:30.501Z,4.00
2022-12-20T23:38:59.278Z,4.00
2022-12-20T23:41:26.147Z,4.10
2022-12-20T23:43:55.230Z,4.10
2022-12-20T23:46:22.762Z,4.10
2022-12-20T23:48:51.238Z,4.10
2022-12-20T23:51:18.899Z,4.10
2022-12-20T23:53:45.657Z,4.20
2022-12-20T23:56:17.665Z,4.30
2022-12-20T23:58:45.966Z,4.50
